createdAt,value
2022-09-12T00:02:09.631Z,78.80
2022-09-12T00:05:07.368Z,78.80
2022-09-12T00:08:04.889Z,78.83
2022-09-12T00:11:02.300Z,78.91
2022-09-12T00:13:59.723Z,78.99
2022-09-12T00:16:57.153Z,78.96
2022-09-12T00:19:55.070Z,78.93
2022-09-12T00:22:52.498Z,78.94
2022-09-12T00:25:49.920Z,78.98
2022-09-12T00:28:47.543Z,79.10
2022-09-12T00:31:45.292Z,79.20
2022-09-12T00:34:42.739Z,79.22
2022-09-12T00:37:40.160Z,79.30
2022-09-12T00:40:37.594Z,79.37
2022-09-12T00:43:35.017Z,79.39
2022-09-12T00:46:32.434Z,79.40
2022-09-12T00:49:29.925Z,79.50
2022-09-12T00:52:27.350Z,79.52
2022-09-12T00:55:24.755Z,79.58
2022-09-12T00:58:22.259Z,79.60
2022-09-12T01:01:20.803Z,79.61
2022-09-12T01:04:18.377Z,79.71
2022-09-12T01:07:16.306Z,79.78
2022-09-12T01:10:13.735Z,79.81
2022-09-12T01:13:11.170Z,79.89
2022-09-12T01:16:08.632Z,79.89
2022-09-12T01:19:06.087Z,79.94
2022-09-12T01:22:03.513Z,79.99
2022-09-12T01:25:00.945Z,79.90
2022-09-12T01:27:58.384Z,79.93
2022-09-12T01:30:55.842Z,79.90
2022-09-12T01:33:53.297Z,79.97
2022-09-12T01:36:51.867Z,80.00
2022-09-12T01:39:49.317Z,79.97
2022-09-12T01:42:47.090Z,79.90
2022-09-12T01:45:44.546Z,79.87
2022-09-12T01:48:42.006Z,79.83
2022-09-12T01:51:39.470Z,79.80
2022-09-12T01:54:36.906Z,79.80
2022-09-12T01:57:34.357Z,79.80
2022-09-12T02:00:31.769Z,79.79
2022-09-12T02:03:29.404Z,79.78
2022-09-12T02:06:26.830Z,79.80
2022-09-12T02:09:24.280Z,79.82
2022-09-12T02:12:21.702Z,79.87
2022-09-12T02:15:19.149Z,79.90
2022-09-12T02:18:18.150Z,79.90
2022-09-12T02:21:15.617Z,79.91
2022-09-12T02:24:13.022Z,79.90
2022-09-12T02:27:10.453Z,79.96
2022-09-12T02:30:07.982Z,79.95
2022-09-12T02:33:05.395Z,79.99
2022-09-12T02:36:02.839Z,80.00
2022-09-12T02:39:00.273Z,80.00
2022-09-12T02:41:58.245Z,80.00
2022-09-12T02:44:55.694Z,79.96
2022-09-12T02:47:53.087Z,79.97
2022-09-12T02:50:50.560Z,80.01
2022-09-12T02:53:47.971Z,80.04
2022-09-12T02:56:45.414Z,80.09
2022-09-12T02:59:42.923Z,80.15
2022-09-12T03:02:40.352Z,80.20
2022-09-12T03:05:38.006Z,80.22
2022-09-12T03:08:35.487Z,80.27
2022-09-12T03:11:33.341Z,80.38
2022-09-12T03:14:30.771Z,80.42
2022-09-12T03:17:28.217Z,80.50
2022-09-12T03:20:25.758Z,80.55
2022-09-12T03:23:23.226Z,80.60
2022-09-12T03:26:20.677Z,80.63
2022-09-12T03:29:18.153Z,80.70
2022-09-12T03:32:15.571Z,80.70
2022-09-12T03:35:12.982Z,80.70
2022-09-12T03:38:10.418Z,80.74
2022-09-12T03:41:08.080Z,80.79
2022-09-12T03:44:05.505Z,80.82
2022-09-12T03:47:02.965Z,80.89
2022-09-12T03:50:00.381Z,80.94
2022-09-12T03:52:57.808Z,80.98
2022-09-12T03:55:55.235Z,81.03
2022-09-12T03:58:52.668Z,81.13
2022-09-12T04:01:50.104Z,81.18
2022-09-12T04:04:48.113Z,81.25
2022-09-12T04:07:45.545Z,81.32
2022-09-12T04:10:42.959Z,81.40
2022-09-12T04:13:40.416Z,81.46
2022-09-12T04:16:37.959Z,81.50
2022-09-12T04:19:35.400Z,81.55
2022-09-12T04:22:33.491Z,81.66
2022-09-12T04:25:31.565Z,81.65
2022-09-12T04:28:29.751Z,81.65
2022-09-12T04:31:27.171Z,81.64
2022-09-12T04:34:24.617Z,81.69
2022-09-12T04:37:23.698Z,81.70
2022-09-12T04:40:21.530Z,81.70
2022-09-12T04:43:18.980Z,81.75
2022-09-12T04:46:16.832Z,81.80
2022-09-12T04:49:14.291Z,81.80
2022-09-12T04:52:11.706Z,81.72
2022-09-12T04:55:09.120Z,81.72
2022-09-12T04:58:06.543Z,81.68
2022-09-12T05:01:03.996Z,81.59
2022-09-12T05:04:01.482Z,81.48
2022-09-12T05:06:58.891Z,81.36
2022-09-12T05:09:56.396Z,81.25
2022-09-12T05:12:53.827Z,81.16
2022-09-12T05:15:51.285Z,81.06
2022-09-12T05:18:49.203Z,80.98
2022-09-12T05:21:46.611Z,80.87
2022-09-12T05:24:49.893Z,80.72
2022-09-12T05:27:50.551Z,80.59
2022-09-12T05:30:48.138Z,80.44
2022-09-12T05:33:45.602Z,80.24
2022-09-12T05:36:43.047Z,80.03
2022-09-12T05:39:40.509Z,79.83
2022-09-12T05:42:38.155Z,79.74
2022-09-12T05:45:35.603Z,79.58
2022-09-12T05:48:34.549Z,79.40
2022-09-12T05:51:32.000Z,79.23
2022-09-12T05:54:31.725Z,79.08
2022-09-12T05:57:29.338Z,78.99
2022-09-12T06:00:29.341Z,78.84
2022-09-12T06:03:30.406Z,78.68
2022-09-12T06:06:27.835Z,78.53
2022-09-12T06:09:26.387Z,78.47
2022-09-12T06:12:23.807Z,78.41
2022-09-12T06:15:21.251Z,78.26
2022-09-12T06:18:18.723Z,78.00
2022-09-12T06:21:16.121Z,77.80
2022-09-12T06:24:13.563Z,77.65
2022-09-12T06:27:11.000Z,77.25
2022-09-12T06:30:08.433Z,76.57
2022-09-12T06:33:05.863Z,75.77
2022-09-12T06:36:03.817Z,74.90
2022-09-12T06:39:01.989Z,74.18
2022-09-12T06:41:59.460Z,73.52
2022-09-12T06:44:56.881Z,73.12
2022-09-12T06:47:54.282Z,72.68
2022-09-12T06:50:51.708Z,72.31
2022-09-12T06:53:49.132Z,72.07
2022-09-12T06:56:46.590Z,71.68
2022-09-12T06:59:44.022Z,70.99
2022-09-12T07:02:41.563Z,70.57
2022-09-12T07:05:39.036Z,70.18
2022-09-12T07:08:37.180Z,70.01
2022-09-12T07:11:34.608Z,69.86
2022-09-12T07:14:32.026Z,69.75
2022-09-12T07:17:29.440Z,69.62
2022-09-12T07:20:26.943Z,69.57
2022-09-12T07:23:24.398Z,69.38
2022-09-12T07:26:21.861Z,69.02
2022-09-12T07:29:35.959Z,68.36
2022-09-12T07:32:34.319Z,68.08
2022-09-12T07:35:31.749Z,67.81
2022-09-12T07:38:29.203Z,67.78
2022-09-12T07:41:26.639Z,67.68
2022-09-12T07:44:24.304Z,67.50
2022-09-12T07:47:21.733Z,67.35
2022-09-12T07:50:19.532Z,66.72
2022-09-12T07:53:16.967Z,65.40
2022-09-12T07:56:14.511Z,63.97
2022-09-12T07:59:11.948Z,62.58
2022-09-12T08:02:11.536Z,61.00
2022-09-12T08:05:12.217Z,58.88
2022-09-12T08:08:10.051Z,57.47
2022-09-12T08:11:07.496Z,55.32
2022-09-12T08:14:05.918Z,54.20
2022-09-12T08:17:03.359Z,53.63
2022-09-12T08:20:00.781Z,52.79
2022-09-12T08:22:58.240Z,52.12
2022-09-12T08:25:55.674Z,51.43
2022-09-12T08:28:53.584Z,50.45
2022-09-12T08:31:55.170Z,48.99
2022-09-12T08:34:54.688Z,48.42
2022-09-12T08:37:52.108Z,48.13
2022-09-12T08:40:49.536Z,48.17
2022-09-12T08:43:47.059Z,48.31
2022-09-12T08:46:44.867Z,48.58
2022-09-12T08:49:42.293Z,47.53
2022-09-12T08:52:39.817Z,47.05
2022-09-12T08:55:37.243Z,47.18
2022-09-12T08:58:35.451Z,47.08
2022-09-12T09:01:33.031Z,46.96
2022-09-12T09:04:30.563Z,46.72
2022-09-12T09:07:28.514Z,46.04
2022-09-12T09:10:25.918Z,45.98
2022-09-12T09:13:37.208Z,45.44
2022-09-12T09:16:35.125Z,45.16
2022-09-12T09:19:32.805Z,44.88
2022-09-12T09:22:30.228Z,44.15
2022-09-12T09:25:27.649Z,42.82
2022-09-12T09:28:25.170Z,41.27
2022-09-12T09:31:22.686Z,40.95
2022-09-12T09:34:20.158Z,40.59
2022-09-12T09:37:17.573Z,40.28
2022-09-12T09:40:15.615Z,39.52
2022-09-12T09:43:13.587Z,39.70
2022-09-12T09:46:11.990Z,39.89
2022-09-12T09:49:09.591Z,39.99
2022-09-12T09:52:07.016Z,40.64
2022-09-12T09:55:05.368Z,40.73
2022-09-12T09:58:04.257Z,40.96
2022-09-12T10:01:01.804Z,41.00
2022-09-12T10:03:59.994Z,40.12
2022-09-12T10:06:57.424Z,38.78
2022-09-12T10:09:54.843Z,37.58
2022-09-12T10:12:52.286Z,36.36
2022-09-12T10:15:49.779Z,35.22
2022-09-12T10:18:47.275Z,34.19
2022-09-12T10:21:44.710Z,32.68
2022-09-12T10:24:42.420Z,31.65
2022-09-12T10:27:39.839Z,31.33
2022-09-12T10:30:37.308Z,31.00
2022-09-12T10:33:35.207Z,30.83
2022-09-12T10:36:32.661Z,30.23
2022-09-12T10:39:31.132Z,29.83
2022-09-12T10:42:28.569Z,29.45
2022-09-12T10:45:26.502Z,29.11
2022-09-12T10:48:23.912Z,28.79
2022-09-12T10:51:21.363Z,29.16
2022-09-12T10:54:19.220Z,29.36
2022-09-12T10:57:17.150Z,28.94
2022-09-12T11:00:20.229Z,28.52
2022-09-12T11:03:17.669Z,28.46
2022-09-12T11:06:15.165Z,28.26
2022-09-12T11:09:12.571Z,27.88
2022-09-12T11:12:09.977Z,28.56
2022-09-12T11:15:07.416Z,29.34
2022-09-12T11:18:05.243Z,30.59
2022-09-12T11:21:03.260Z,31.39
2022-09-12T11:24:00.680Z,31.70
2022-09-12T11:26:58.093Z,32.26
2022-09-12T11:29:55.507Z,32.95
2022-09-12T11:32:53.396Z,32.91
2022-09-12T11:35:54.979Z,32.17
2022-09-12T11:38:53.260Z,31.08
2022-09-12T11:41:50.703Z,30.09
2022-09-12T11:44:48.248Z,29.42
2022-09-12T11:47:45.676Z,28.72
2022-09-12T11:50:43.115Z,28.32
2022-09-12T11:53:40.566Z,28.70
2022-09-12T11:56:38.285Z,29.77
2022-09-12T11:59:35.701Z,30.13
2022-09-12T12:02:33.222Z,30.57
2022-09-12T12:05:31.288Z,30.75
2022-09-12T12:08:28.807Z,30.44
2022-09-12T12:11:26.233Z,29.56
2022-09-12T12:14:23.676Z,28.76
2022-09-12T12:17:21.266Z,28.59
2022-09-12T12:20:18.767Z,29.14
2022-09-12T12:23:16.207Z,30.03
2022-09-12T12:26:13.629Z,30.88
2022-09-12T12:29:11.205Z,31.35
2022-09-12T12:32:08.970Z,31.74
2022-09-12T12:35:06.393Z,32.30
2022-09-12T12:38:03.931Z,32.79
2022-09-12T12:41:01.342Z,32.75
2022-09-12T12:43:58.766Z,32.81
2022-09-12T12:46:56.171Z,32.92
2022-09-12T12:49:53.629Z,33.09
2022-09-12T12:52:51.042Z,33.33
2022-09-12T12:55:48.914Z,33.74
2022-09-12T12:58:46.347Z,33.92
2022-09-12T13:01:43.828Z,33.83
2022-09-12T13:04:41.320Z,34.08
2022-09-12T13:07:38.749Z,34.42
2022-09-12T13:10:36.173Z,34.17
2022-09-12T13:13:33.589Z,33.97
2022-09-12T13:16:31.026Z,34.08
2022-09-12T13:19:29.305Z,34.19
2022-09-12T13:22:26.701Z,34.52
2022-09-12T13:25:24.146Z,35.01
2022-09-12T13:28:21.578Z,35.42
2022-09-12T13:31:19.105Z,35.66
2022-09-12T13:34:16.764Z,36.05
2022-09-12T13:37:14.198Z,36.44
2022-09-12T13:40:11.750Z,37.05
2022-09-12T13:43:09.626Z,37.53
2022-09-12T13:46:07.131Z,37.66
2022-09-12T13:49:05.100Z,37.82
2022-09-12T13:52:02.529Z,37.73
2022-09-12T13:55:00.079Z,38.01
2022-09-12T13:57:58.313Z,38.04
2022-09-12T14:00:55.754Z,38.08
2022-09-12T14:04:10.905Z,38.10
2022-09-12T14:07:08.335Z,37.98
2022-09-12T14:10:06.279Z,38.22
2022-09-12T14:13:03.696Z,38.78
2022-09-12T14:16:01.771Z,38.93
2022-09-12T14:19:00.794Z,39.26
2022-09-12T14:21:58.290Z,39.60
2022-09-12T14:24:56.001Z,39.95
2022-09-12T14:27:54.124Z,40.37
2022-09-12T14:30:51.606Z,40.87
2022-09-12T14:33:49.077Z,40.85
2022-09-12T14:36:46.535Z,41.23
2022-09-12T14:39:44.111Z,41.43
2022-09-12T14:42:41.581Z,41.70
2022-09-12T14:45:38.983Z,41.83
2022-09-12T14:48:36.886Z,41.78
2022-09-12T14:51:34.815Z,42.15
2022-09-12T14:54:33.060Z,42.67
2022-09-12T14:57:30.498Z,43.15
2022-09-12T15:00:28.003Z,43.53
2022-09-12T15:03:25.485Z,43.87
2022-09-12T15:06:23.068Z,44.33
2022-09-12T15:09:20.515Z,44.78
2022-09-12T15:12:17.975Z,45.10
2022-09-12T15:15:15.427Z,45.27
2022-09-12T15:18:13.890Z,45.31
2022-09-12T15:21:11.324Z,45.49
2022-09-12T15:24:08.786Z,45.47
2022-09-12T15:27:06.213Z,45.69
2022-09-12T15:30:03.726Z,45.71
2022-09-12T15:33:01.167Z,45.53
2022-09-12T15:35:58.588Z,45.47
2022-09-12T15:38:56.057Z,45.44
2022-09-12T15:41:54.082Z,45.60
2022-09-12T15:44:51.507Z,45.62
2022-09-12T15:47:48.955Z,45.36
2022-09-12T15:50:46.412Z,45.42
2022-09-12T15:53:43.882Z,45.64
2022-09-12T15:56:41.335Z,46.04
2022-09-12T15:59:38.933Z,46.29
2022-09-12T16:02:36.398Z,46.29
2022-09-12T16:05:34.572Z,46.42
2022-09-12T16:08:33.152Z,46.69
2022-09-12T16:11:30.567Z,47.11
2022-09-12T16:14:28.008Z,47.42
2022-09-12T16:17:25.572Z,47.73
2022-09-12T16:20:24.427Z,48.19
2022-09-12T16:23:21.976Z,48.72
2022-09-12T16:26:19.447Z,49.00
2022-09-12T16:29:17.016Z,49.38
2022-09-12T16:32:14.427Z,49.83
2022-09-12T16:35:11.856Z,50.22
2022-09-12T16:38:09.316Z,50.35
2022-09-12T16:41:06.750Z,50.64
2022-09-12T16:44:04.173Z,50.86
2022-09-12T16:47:01.609Z,51.13
2022-09-12T16:49:59.201Z,51.25
2022-09-12T16:52:56.604Z,51.48
2022-09-12T16:55:54.046Z,51.79
2022-09-12T16:58:51.685Z,52.10
2022-09-12T17:01:49.361Z,52.35
2022-09-12T17:04:46.813Z,52.67
2022-09-12T17:07:44.223Z,53.05
2022-09-12T17:10:41.779Z,53.37
2022-09-12T17:14:00.543Z,53.69
2022-09-12T17:16:56.606Z,54.08
2022-09-12T17:19:54.064Z,54.37
2022-09-12T17:22:51.480Z,54.69
2022-09-12T17:25:49.313Z,55.09
2022-09-12T17:28:47.249Z,55.42
2022-09-12T17:31:44.676Z,55.74
2022-09-12T17:34:42.290Z,56.16
2022-09-12T17:37:40.055Z,56.46
2022-09-12T17:40:58.571Z,56.83
2022-09-12T17:43:57.434Z,57.23
2022-09-12T17:46:54.934Z,57.48
2022-09-12T17:50:05.137Z,57.78
2022-09-12T17:53:29.225Z,58.07
2022-09-12T17:56:31.851Z,58.33
2022-09-12T17:59:44.307Z,58.50
2022-09-12T18:02:43.920Z,58.73
2022-09-12T18:05:43.014Z,59.02
2022-09-12T18:08:42.162Z,59.28
2022-09-12T18:11:41.554Z,59.67
2022-09-12T18:14:39.353Z,60.07
2022-09-12T18:17:37.171Z,60.47
2022-09-12T18:20:34.990Z,60.67
2022-09-12T18:23:33.387Z,60.90
2022-09-12T18:26:30.871Z,61.10
2022-09-12T18:29:28.619Z,61.28
2022-09-12T18:32:26.493Z,61.53
2022-09-12T18:35:24.248Z,61.75
2022-09-12T18:38:21.760Z,61.86
2022-09-12T18:41:19.510Z,62.00
2022-09-12T18:44:17.395Z,62.22
2022-09-12T18:47:15.241Z,62.44
2022-09-12T18:50:13.114Z,62.67
2022-09-12T18:53:10.993Z,62.92
2022-09-12T18:56:09.847Z,63.03
2022-09-12T18:59:07.725Z,63.23
2022-09-12T19:02:07.069Z,63.43
2022-09-12T19:05:04.993Z,63.58
2022-09-12T19:08:03.599Z,63.77
2022-09-12T19:11:08.893Z,64.00
2022-09-12T19:14:09.646Z,64.22
2022-09-12T19:17:12.229Z,64.38
2022-09-12T19:20:13.586Z,64.63
2022-09-12T19:23:14.922Z,64.83
2022-09-12T19:26:13.387Z,65.09
2022-09-12T19:29:12.777Z,65.34
2022-09-12T19:32:11.965Z,65.58
2022-09-12T19:35:13.433Z,65.78
2022-09-12T19:38:18.570Z,65.93
2022-09-12T19:41:16.945Z,66.22
2022-09-12T19:44:16.543Z,66.36
2022-09-12T19:47:14.923Z,66.54
2022-09-12T19:50:12.460Z,66.78
2022-09-12T19:53:09.947Z,66.99
2022-09-12T19:56:07.850Z,67.17
2022-09-12T19:59:05.386Z,67.33
2022-09-12T20:02:03.458Z,67.49
2022-09-12T20:05:01.116Z,67.62
2022-09-12T20:07:58.983Z,67.73
2022-09-12T20:10:57.171Z,67.91
2022-09-12T20:13:54.837Z,68.09
2022-09-12T20:16:52.273Z,68.15
2022-09-12T20:19:49.690Z,68.29
2022-09-12T20:22:47.588Z,68.43
2022-09-12T20:25:45.073Z,68.60
2022-09-12T20:28:43.247Z,68.78
2022-09-12T20:31:41.081Z,68.92
2022-09-12T20:34:39.179Z,69.04
2022-09-12T20:37:37.728Z,69.16
2022-09-12T20:40:35.225Z,69.32
2022-09-12T20:43:32.647Z,69.44
2022-09-12T20:46:30.099Z,69.59
2022-09-12T20:49:27.559Z,69.76
2022-09-12T20:52:24.976Z,69.93
2022-09-12T20:55:22.419Z,70.10
2022-09-12T20:58:19.823Z,70.19
2022-09-12T21:01:17.321Z,70.33
2022-09-12T21:04:15.345Z,70.49
2022-09-12T21:07:12.849Z,70.65
2022-09-12T21:10:10.567Z,70.82
2022-09-12T21:13:08.034Z,70.93
2022-09-12T21:16:05.512Z,70.98
2022-09-12T21:19:02.961Z,71.15
2022-09-12T21:22:01.022Z,71.22
2022-09-12T21:24:58.435Z,71.33
2022-09-12T21:27:55.864Z,71.44
2022-09-12T21:30:53.318Z,71.55
2022-09-12T21:33:50.767Z,71.65
2022-09-12T21:36:48.187Z,71.74
2022-09-12T21:39:45.667Z,71.86
2022-09-12T21:42:43.333Z,71.98
2022-09-12T21:45:40.825Z,72.07
2022-09-12T21:48:38.485Z,72.10
2022-09-12T21:51:35.926Z,72.12
2022-09-12T21:54:35.235Z,72.22
2022-09-12T21:57:32.648Z,72.36
2022-09-12T22:00:30.078Z,72.51
2022-09-12T22:03:27.498Z,72.63
2022-09-12T22:06:24.925Z,72.72
2022-09-12T22:09:22.390Z,72.79
2022-09-12T22:12:19.877Z,72.82
2022-09-12T22:15:39.513Z,72.93
2022-09-12T22:18:35.261Z,73.03
2022-09-12T22:21:32.688Z,73.10
2022-09-12T22:24:30.143Z,73.18
2022-09-12T22:27:27.625Z,73.22
2022-09-12T22:30:26.357Z,73.30
2022-09-12T22:33:23.766Z,73.35
2022-09-12T22:36:23.346Z,73.40
2022-09-12T22:39:21.142Z,73.44
2022-09-12T22:42:18.950Z,73.56
2022-09-12T22:45:16.405Z,73.64
2022-09-12T22:48:13.840Z,73.69
2022-09-12T22:51:11.250Z,73.78
2022-09-12T22:54:08.666Z,73.88
2022-09-12T22:57:06.089Z,73.97
2022-09-12T23:00:03.533Z,74.05
2022-09-12T23:03:02.009Z,74.10
2022-09-12T23:05:59.457Z,74.14
2022-09-12T23:08:57.337Z,74.20
2022-09-12T23:11:54.884Z,74.26
2022-09-12T23:14:52.382Z,74.30
2022-09-12T23:17:49.831Z,74.30
2022-09-12T23:20:47.273Z,74.34
2022-09-12T23:23:44.703Z,74.40
2022-09-12T23:26:42.146Z,74.43
2022-09-12T23:29:39.572Z,74.50
2022-09-12T23:32:37.408Z,74.55
2022-09-12T23:35:34.873Z,74.60
2022-09-12T23:38:32.294Z,74.62
2022-09-12T23:41:29.806Z,74.70
2022-09-12T23:44:27.239Z,74.70
2022-09-12T23:47:24.716Z,74.75
2022-09-12T23:50:22.118Z,74.84
2022-09-12T23:53:19.621Z,74.90
2022-09-12T23:56:17.039Z,74.96
2022-09-12T23:59:14.597Z,74.99
